Time;durP1;ratioP1;P1;durP2;ratioP2;P2;SDS_P1;SDS_P2;PMS_P1;PMS_P2;Temp;Humidity;BMP_temperature;BMP_pressure;BME280_temperature;BME280_humidity;BME280_pressure;Samples;Min_cycle;Max_cycle;Signal;HPM_P1;HPM_P2
2021/10/11 00:00:19;;;;;;;17.90;13.63;;;;;;;8.14;71.13;101344.97;4859236;29;21074;-76
2021/10/11 00:02:44;;;;;;;20.17;13.98;;;;;;;8.08;71.43;101339.56;4841843;29;20775;-76
2021/10/11 00:05:12;;;;;;;22.87;15.83;;;;;;;8.07;71.95;101341.41;4858400;29;20470;-76
2021/10/11 00:07:38;;;;;;;24.75;16.58;;;;;;;8.05;71.80;101335.41;4837385;29;20427;-76
2021/10/11 00:10:05;;;;;;;27.20;16.53;;;;;;;7.96;72.34;101336.66;4858041;29;20429;-76
2021/10/11 00:12:31;;;;;;;21.55;16.17;;;;;;;7.92;72.86;101343.50;4858855;29;20421;-76
2021/10/11 00:14:56;;;;;;;25.63;15.18;;;;;;;7.96;72.72;101349.31;4858631;29;20414;-76
2021/10/11 00:17:21;;;;;;;29.27;15.43;;;;;;;8.00;72.72;101350.56;4859051;29;20446;-76
2021/10/11 00:19:50;;;;;;;32.87;17.17;;;;;;;8.04;72.79;101346.41;4858962;29;20421;-76
2021/10/11 00:22:17;;;;;;;22.98;16.98;;;;;;;8.09;73.05;101350.16;4857683;29;20513;-76
2021/10/11 00:24:42;;;;;;;40.00;17.08;;;;;;;8.10;73.16;101340.19;4841270;29;20414;-76
2021/10/11 00:27:08;;;;;;;49.88;16.45;;;;;;;8.08;73.65;101345.78;4858801;29;20437;-76
2021/10/11 00:29:33;;;;;;;22.77;16.43;;;;;;;8.09;73.58;101341.22;4842365;29;20407;-76
2021/10/11 00:31:58;;;;;;;24.00;16.27;;;;;;;8.10;73.57;101330.22;4840433;29;20510;-76
2021/10/11 00:34:23;;;;;;;21.70;15.43;;;;;;;8.14;74.01;101331.47;4857762;29;20429;-76
2021/10/11 00:36:49;;;;;;;21.77;14.97;;;;;;;8.15;73.53;101341.22;4858975;29;20426;-76
2021/10/11 00:39:14;;;;;;;17.90;13.93;;;;;;;8.12;73.84;101340.81;4858288;29;20418;-76
2021/10/11 00:41:39;;;;;;;19.53;13.73;;;;;;;8.08;73.31;101335.00;4842369;29;20470;-76
2021/10/11 00:44:05;;;;;;;18.70;13.73;;;;;;;8.06;73.97;101336.25;4859043;29;20505;-76
2021/10/11 00:46:30;;;;;;;20.40;13.82;;;;;;;8.05;73.49;101338.09;4857208;29;20434;-76
2021/10/11 00:48:56;;;;;;;19.50;14.10;;;;;;;8.06;74.15;101334.38;4860624;29;20410;-76
2021/10/11 00:51:21;;;;;;;20.40;14.77;;;;;;;8.08;74.16;101328.75;4865008;29;20410;-76
2021/10/11 00:53:47;;;;;;;22.57;14.90;;;;;;;8.07;73.92;101335.19;4864245;29;20517;-76
2021/10/11 00:56:12;;;;;;;18.60;14.23;;;;;;;8.06;74.01;101334.38;4864415;29;20422;-76
2021/10/11 00:58:38;;;;;;;20.27;14.10;;;;;;;8.05;73.86;101338.09;4864108;29;20461;-76
2021/10/11 01:01:03;;;;;;;19.40;14.23;;;;;;;8.07;73.65;101335.19;4864826;29;20501;-76
2021/10/11 01:03:29;;;;;;;20.30;14.43;;;;;;;8.08;73.47;101335.00;4864185;29;20414;-76
2021/10/11 01:05:54;;;;;;;21.03;13.27;;;;;;;8.09;71.98;101325.03;4865175;29;20426;-76
2021/10/11 01:08:20;;;;;;;16.50;11.77;;;;;;;8.08;71.90;101326.06;4847478;29;20606;-76
2021/10/11 01:10:47;;;;;;;19.38;12.13;;;;;;;8.06;71.55;101322.75;4864085;29;20426;-76
2021/10/11 01:13:13;;;;;;;18.37;13.30;;;;;;;8.07;71.38;101327.09;4846571;29;20469;-76
2021/10/11 01:15:39;;;;;;;15.10;12.00;;;;;;;8.06;70.71;101337.09;4863742;29;20470;-76
2021/10/11 01:18:04;;;;;;;17.30;11.93;;;;;;;8.04;70.81;101341.84;4864196;29;20440;-76
2021/10/11 01:20:29;;;;;;;17.27;12.43;;;;;;;8.00;70.28;101340.59;4848210;29;20504;-76
2021/10/11 01:22:55;;;;;;;13.80;11.37;;;;;;;7.93;70.04;101339.78;4864100;29;20410;-76
2021/10/11 01:25:20;;;;;;;17.25;11.90;;;;;;;7.89;69.91;101335.81;4864435;29;20831;-76
2021/10/11 01:27:46;;;;;;;17.97;11.83;;;;;;;7.81;69.84;101328.75;4862577;29;20446;-76
2021/10/11 01:30:12;;;;;;;18.23;11.03;;;;;;;7.74;69.76;101314.41;4849474;29;20413;-76
2021/10/11 01:32:40;;;;;;;17.33;12.03;;;;;;;7.65;70.35;101325.59;4864495;29;20497;-76
2021/10/11 01:35:06;;;;;;;17.47;11.77;;;;;;;7.59;70.84;101335.34;4847662;29;20409;-76
2021/10/11 01:37:32;;;;;;;16.42;11.70;;;;;;;7.56;70.64;101335.75;4863980;29;20422;-76
2021/10/11 01:39:57;;;;;;;15.63;11.47;;;;;;;7.56;70.16;101327.66;4864099;29;20424;-76
2021/10/11 01:42:22;;;;;;;17.47;11.47;;;;;;;7.57;70.00;101332.03;4846781;29;20429;-76
2021/10/11 01:44:48;;;;;;;18.37;11.80;;;;;;;7.56;69.47;101332.22;4863701;29;20422;-76
2021/10/11 01:47:13;;;;;;;19.10;13.73;;;;;;;7.53;69.39;101332.63;4864391;29;20529;-76
2021/10/11 01:49:38;;;;;;;18.33;12.73;;;;;;;7.45;70.00;101330.09;4847440;29;20902;-76
2021/10/11 01:52:04;;;;;;;15.73;12.10;;;;;;;7.37;70.11;101324.91;4864936;29;20410;-76
2021/10/11 01:54:29;;;;;;;19.57;13.27;;;;;;;7.36;70.28;101332.16;4862722;29;20422;-76
2021/10/11 01:56:54;;;;;;;20.50;13.50;;;;;;;7.34;70.59;101328.03;4862837;29;20512;-76
2021/10/11 01:59:20;;;;;;;17.03;13.13;;;;;;;7.29;68.92;101324.06;4863153;29;20478;-76
2021/10/11 02:01:45;;;;;;;17.90;12.23;;;;;;;7.25;68.86;101316.56;4861100;29;20929;-76
2021/10/11 02:04:10;;;;;;;14.57;10.63;;;;;;;7.19;68.92;101318.22;4844804;29;20462;-76
2021/10/11 02:06:35;;;;;;;18.20;12.17;;;;;;;7.12;69.54;101320.03;4860879;29;20462;-76
2021/10/11 02:09:01;;;;;;;15.73;11.43;;;;;;;7.09;70.12;101317.75;4861069;29;20425;-76
2021/10/11 02:11:28;;;;;;;14.77;11.53;;;;;;;7.06;69.98;101315.47;4860695;29;20429;-76
2021/10/11 02:13:55;;;;;;;13.73;11.23;;;;;;;7.00;69.71;101318.13;4860569;29;20493;-76
2021/10/11 02:16:20;;;;;;;14.98;11.80;;;;;;;6.94;70.38;101319.78;4860561;29;20779;-76
2021/10/11 02:18:45;;;;;;;14.43;12.00;;;;;;;6.89;70.57;101316.84;4861221;29;20450;-76
2021/10/11 02:21:11;;;;;;;14.82;12.48;;;;;;;6.93;70.54;101317.28;4861031;29;20771;-76
2021/10/11 02:23:36;;;;;;;17.00;12.63;;;;;;;6.93;70.35;101310.03;4844047;29;20418;-76
2021/10/11 02:26:01;;;;;;;18.20;14.10;;;;;;;6.94;69.99;101311.69;4858820;29;20445;-76
2021/10/11 02:28:26;;;;;;;16.60;13.67;;;;;;;6.95;69.73;101310.63;4860201;29;20786;-76
2021/10/11 02:30:52;;;;;;;17.40;13.30;;;;;;;6.92;70.21;101312.91;4861263;29;20904;-76
2021/10/11 02:33:18;;;;;;;16.73;12.35;;;;;;;6.89;70.10;101310.59;4860162;29;20437;-76
2021/10/11 02:35:43;;;;;;;14.15;12.18;;;;;;;6.84;69.71;101307.69;4860753;29;20446;-76
2021/10/11 02:38:08;;;;;;;14.10;12.20;;;;;;;6.84;68.77;101297.75;4843290;29;20505;-76
2021/10/11 02:40:35;;;;;;;13.60;11.00;;;;;;;6.78;69.08;101291.28;4842834;29;20430;-76
2021/10/11 02:43:01;;;;;;;15.68;11.43;;;;;;;6.72;69.07;101281.31;4859950;29;20417;-76
2021/10/11 02:45:26;;;;;;;11.57;10.23;;;;;;;6.67;69.05;101270.31;4840511;29;20780;-76
2021/10/11 02:47:53;;;;;;;12.20;10.60;;;;;;;6.66;68.99;101265.13;4841448;29;21408;-76
2021/10/11 02:50:20;;;;;;;18.33;11.40;;;;;;;6.65;68.99;101261.59;4842316;29;20875;-76
2021/10/11 02:52:46;;;;;;;10.38;9.20;;;;;;;6.62;69.45;101253.91;4840814;29;20506;-76
2021/10/11 02:55:11;;;;;;;10.30;9.30;;;;;;;6.66;68.71;101254.34;4840577;29;20515;-76
2021/10/11 02:57:36;;;;;;;9.63;8.63;;;;;;;6.67;69.00;101251.47;4841563;29;20499;-76
2021/10/11 03:00:04;;;;;;;11.20;9.07;;;;;;;6.67;69.53;101250.63;4838047;29;20420;-76
2021/10/11 03:02:29;;;;;;;10.20;9.20;;;;;;;6.64;70.42;101246.47;4841849;29;20452;-76
2021/10/11 03:04:55;;;;;;;17.33;9.47;;;;;;;6.61;70.32;101248.75;4841286;29;20467;-76
2021/10/11 03:07:20;;;;;;;75.47;11.10;;;;;;;6.55;71.02;101249.53;4839549;29;20450;-76
2021/10/11 03:09:46;;;;;;;73.13;10.93;;;;;;;6.46;72.06;101262.31;4839635;29;20420;-77
2021/10/11 03:12:11;;;;;;;25.73;9.73;;;;;;;6.41;72.98;101256.72;4841387;29;20464;-76
2021/10/11 03:14:37;;;;;;;24.63;9.40;;;;;;;6.44;73.16;101247.41;4841639;29;20916;-76
2021/10/11 03:17:03;;;;;;;55.13;10.70;;;;;;;6.46;73.07;101245.34;4839956;29;20438;-76
2021/10/11 03:19:28;;;;;;;24.13;10.25;;;;;;;6.43;73.53;101254.66;4841758;29;20434;-76
2021/10/11 03:21:53;;;;;;;29.37;10.17;;;;;;;6.43;74.03;101259.19;4841719;29;20423;-76
2021/10/11 03:24:19;;;;;;;23.20;10.00;;;;;;;6.42;73.51;101263.75;4840437;29;20427;-76
2021/10/11 03:26:44;;;;;;;13.90;10.40;;;;;;;6.39;73.54;101264.13;4840135;29;20440;-76
2021/10/11 03:29:09;;;;;;;15.07;11.23;;;;;;;6.43;73.93;101261.88;4834375;29;20427;-76
2021/10/11 03:31:35;;;;;;;13.03;10.50;;;;;;;6.44;73.25;101272.47;4839751;29;20959;-76
2021/10/11 03:34:00;;;;;;;12.20;10.37;;;;;;;6.47;73.48;101274.75;4841129;29;20420;-76
2021/10/11 03:36:25;;;;;;;13.10;10.77;;;;;;;6.48;73.10;101271.06;4840197;29;20424;-76
2021/10/11 03:38:50;;;;;;;11.70;10.30;;;;;;;6.47;73.11;101263.16;4840861;29;20897;-76
2021/10/11 03:41:16;;;;;;;9.70;8.70;;;;;;;6.43;73.41;101260.03;4841224;29;20427;-76
2021/10/11 03:43:41;;;;;;;11.30;10.10;;;;;;;6.46;73.35;101277.63;4843229;29;20732;-76
2021/10/11 03:46:06;;;;;;;11.00;9.87;;;;;;;6.49;73.43;101286.16;4857692;29;20438;-76
2021/10/11 03:48:32;;;;;;;10.97;9.97;;;;;;;6.54;73.34;101302.56;4859355;29;20418;-76
2021/10/11 03:50:58;;;;;;;10.82;9.77;;;;;;;6.61;73.48;101299.91;4859498;29;20418;-75
2021/10/11 03:53:23;;;;;;;13.02;10.60;;;;;;;6.65;73.55;101306.56;4858970;29;20438;-76
2021/10/11 03:55:48;;;;;;;11.82;10.10;;;;;;;6.68;72.91;101298.94;4858504;29;20599;-76
2021/10/11 03:58:14;;;;;;;11.13;9.97;;;;;;;6.71;73.15;101311.16;4856763;29;20430;-76
2021/10/11 04:00:39;;;;;;;11.80;10.60;;;;;;;6.72;72.59;101319.03;4858168;29;20886;-76
2021/10/11 04:03:06;;;;;;;13.50;9.93;;;;;;;6.75;72.70;101328.59;4858697;29;20802;-76
2021/10/11 04:05:32;;;;;;;13.88;12.07;;;;;;;6.77;73.09;101330.06;4859303;29;20426;-76
2021/10/11 04:08:01;;;;;;;14.27;11.50;;;;;;;6.82;72.64;101331.31;4840501;29;20421;-76
2021/10/11 04:10:30;;;;;;;14.65;11.27;;;;;;;6.83;72.10;101320.34;4858143;29;20418;-76
2021/10/11 04:13:02;;;;;;;14.18;10.60;;;;;;;6.80;71.69;101299.19;4857981;29;20433;-75
2021/10/11 04:15:27;;;;;;;12.25;9.52;;;;;;;6.65;71.15;101295.78;4836296;29;20482;-76
2021/10/11 04:17:54;;;;;;;9.63;8.73;;;;;;;6.56;71.31;101307.75;4857303;29;20527;-75
2021/10/11 04:20:20;;;;;;;10.35;8.73;;;;;;;6.49;71.59;101306.84;4858657;29;20414;-76
2021/10/11 04:22:45;;;;;;;10.23;9.23;;;;;;;6.50;71.26;101300.44;4858801;29;20418;-76
2021/10/11 04:25:10;;;;;;;10.10;9.10;;;;;;;6.53;69.72;101303.59;4856142;29;20748;-75
2021/10/11 04:27:35;;;;;;;10.98;8.82;;;;;;;6.57;69.14;101301.34;4858173;29;20517;-75
2021/10/11 04:30:01;;;;;;;11.37;9.70;;;;;;;6.53;69.64;101300.91;4842248;29;20610;-75
2021/10/11 04:32:26;;;;;;;19.80;9.23;;;;;;;6.46;69.88;101297.31;4856308;29;20410;-75
2021/10/11 04:34:51;;;;;;;17.10;9.73;;;;;;;6.39;70.48;101293.75;4857965;29;20894;-76
2021/10/11 04:37:17;;;;;;;24.67;10.07;;;;;;;6.38;71.32;101302.03;4853507;29;20463;-76
2021/10/11 04:39:42;;;;;;;23.03;10.37;;;;;;;6.37;71.28;101305.75;4858600;29;20918;-76
2021/10/11 04:42:07;;;;;;;15.90;10.73;;;;;;;6.35;71.53;101299.75;4840854;29;20418;-75
2021/10/11 04:44:33;;;;;;;22.97;10.60;;;;;;;6.33;71.69;101289.16;4858441;29;20466;-76
2021/10/11 04:46:58;;;;;;;18.37;10.50;;;;;;;6.32;71.99;101292.06;4857518;29;20524;-76
2021/10/11 04:49:23;;;;;;;21.90;11.43;;;;;;;6.36;72.00;101285.22;4856569;29;20840;-75
2021/10/11 04:51:48;;;;;;;17.43;11.57;;;;;;;6.39;72.48;101291.06;4855863;29;20473;-75
2021/10/11 04:54:14;;;;;;;13.03;10.47;;;;;;;6.42;72.35;101289.84;4852233;29;20430;-76
2021/10/11 04:56:41;;;;;;;12.50;10.10;;;;;;;6.40;72.43;101297.28;4836233;29;20774;-76
2021/10/11 04:59:06;;;;;;;14.50;10.32;;;;;;;6.38;72.94;101289.41;4855717;29;20422;-76
2021/10/11 05:01:32;;;;;;;13.17;9.40;;;;;;;6.41;72.81;101304.34;4857360;29;20820;-76
2021/10/11 05:03:57;;;;;;;10.53;8.70;;;;;;;6.38;73.28;101293.97;4853505;29;20763;-76
2021/10/11 05:06:22;;;;;;;11.85;9.07;;;;;;;6.37;73.33;101301.22;4838318;29;20533;-76
2021/10/11 05:08:48;;;;;;;10.43;9.33;;;;;;;6.37;73.48;101295.00;4860748;29;20521;-76
2021/10/11 05:11:13;;;;;;;11.97;9.23;;;;;;;6.35;73.68;101302.44;4838810;29;20533;-75
2021/10/11 05:13:38;;;;;;;12.95;9.18;;;;;;;6.30;74.36;101303.03;4854390;29;20451;-75
2021/10/11 05:16:09;;;;;;;14.73;9.40;;;;;;;6.26;75.03;101309.81;4856721;29;20429;-76
2021/10/11 05:18:35;;;;;;;14.82;9.32;;;;;;;6.31;74.57;101309.25;4850902;29;21074;-76
2021/10/11 05:21:00;;;;;;;12.53;9.20;;;;;;;6.34;74.65;101316.91;4853331;29;20422;-76
2021/10/11 05:23:25;;;;;;;14.07;9.97;;;;;;;6.32;74.43;101310.91;4843063;29;20410;-76
2021/10/11 05:25:51;;;;;;;15.07;11.07;;;;;;;6.31;74.64;101320.00;4854108;29;20422;-76
2021/10/11 05:28:16;;;;;;;21.73;12.20;;;;;;;6.25;74.69;101318.94;4852517;29;20478;-76
2021/10/11 05:30:42;;;;;;;36.20;12.30;;;;;;;6.18;75.46;101329.66;4855720;29;20414;-76
2021/10/11 05:33:07;;;;;;;24.48;13.38;;;;;;;6.15;76.12;101326.53;4857193;29;20471;-76
2021/10/11 05:35:33;;;;;;;28.63;13.02;;;;;;;6.14;76.64;101332.91;4860205;29;20418;-77
2021/10/11 05:37:58;;;;;;;30.40;14.02;;;;;;;6.17;76.72;101321.75;4861141;29;20418;-76
2021/10/11 05:40:24;;;;;;;32.60;13.97;;;;;;;6.17;76.65;101338.75;4861213;29;20446;-76
2021/10/11 05:42:49;;;;;;;50.20;15.67;;;;;;;6.13;77.52;101333.94;4861702;29;20406;-76
2021/10/11 05:45:14;;;;;;;77.30;17.08;;;;;;;6.07;77.88;101337.41;4861101;29;20426;-76
2021/10/11 05:47:39;;;;;;;57.13;15.07;;;;;;;6.04;78.39;101337.78;4861166;29;20417;-76
2021/10/11 05:50:07;;;;;;;22.80;14.03;;;;;;;6.09;78.26;101330.81;4860976;29;20478;-77
2021/10/11 05:52:33;;;;;;;42.38;14.10;;;;;;;6.21;78.29;101341.88;4861514;29;20425;-76
2021/10/11 05:54:59;;;;;;;52.70;15.27;;;;;;;6.24;77.54;101330.72;4861316;29;20490;-77
2021/10/11 05:57:24;;;;;;;47.13;15.50;;;;;;;6.19;77.91;101334.00;4861060;29;20525;-77
2021/10/11 05:59:49;;;;;;;33.23;14.80;;;;;;;6.25;78.01;101330.53;4861742;29;21041;-76
2021/10/11 06:02:14;;;;;;;28.70;15.33;;;;;;;6.38;77.14;101324.41;4861407;29;20473;-76
2021/10/11 06:04:41;;;;;;;38.13;15.75;;;;;;;6.41;77.66;101336.66;4844284;29;20429;-75
2021/10/11 06:07:06;;;;;;;34.92;16.23;;;;;;;6.35;77.21;101346.34;4860638;29;20441;-76
2021/10/11 06:09:31;;;;;;;19.83;14.60;;;;;;;6.35;77.88;101362.50;4861330;29;20422;-76
2021/10/11 06:11:57;;;;;;;22.70;14.32;;;;;;;6.43;77.55;101362.34;4861421;29;20555;-76
2021/10/11 06:14:22;;;;;;;17.40;14.13;;;;;;;6.49;77.39;101360.72;4860371;29;20417;-76
2021/10/11 06:16:47;;;;;;;21.00;13.90;;;;;;;6.47;76.85;101347.47;4861452;29;20498;-76
2021/10/11 06:19:13;;;;;;;31.70;16.85;;;;;;;6.46;77.43;101351.19;4868226;29;20808;-75
2021/10/11 06:21:38;;;;;;;40.27;18.53;;;;;;;6.44;77.37;101336.25;4853891;29;20422;-75
2021/10/11 06:24:04;;;;;;;28.50;16.43;;;;;;;6.44;77.48;101350.56;4829022;29;20438;-76
2021/10/11 06:26:29;;;;;;;29.33;15.25;;;;;;;6.44;77.83;101353.25;4852392;29;20520;-76
2021/10/11 06:28:55;;;;;;;23.77;14.87;;;;;;;6.41;77.99;101353.63;4844828;29;20778;-76
2021/10/11 06:31:20;;;;;;;24.50;16.20;;;;;;;6.46;77.55;101359.25;4860629;29;20482;-75
2021/10/11 06:33:46;;;;;;;28.80;16.73;;;;;;;6.50;78.24;101357.00;4844017;29;20778;-76
2021/10/11 06:36:12;;;;;;;25.65;14.93;;;;;;;6.54;77.59;101356.44;4860167;29;20413;-76
2021/10/11 06:38:38;;;;;;;23.87;14.87;;;;;;;6.65;77.67;101345.09;4856358;29;20422;-77
2021/10/11 06:41:03;;;;;;;24.50;15.80;;;;;;;6.77;77.41;101351.59;4860828;29;20482;-76
2021/10/11 06:43:28;;;;;;;23.47;16.03;;;;;;;6.87;77.31;101345.00;4860091;29;20446;-76
2021/10/11 06:45:54;;;;;;;25.07;17.13;;;;;;;6.94;76.84;101343.19;4858906;29;20805;-76
2021/10/11 06:48:19;;;;;;;26.07;16.80;;;;;;;6.94;77.32;101337.81;4860028;29;20418;-76
2021/10/11 06:50:45;;;;;;;28.43;17.57;;;;;;;6.92;77.41;101339.84;4852695;29;20418;-76
2021/10/11 06:53:11;;;;;;;37.42;21.65;;;;;;;6.92;77.19;101346.06;4860501;29;20962;-76
2021/10/11 06:55:36;;;;;;;23.38;17.42;;;;;;;7.01;77.41;101338.66;4859748;29;20505;-76
2021/10/11 06:58:02;;;;;;;38.47;21.17;;;;;;;7.07;77.20;101343.25;4857500;29;20766;-76
2021/10/11 07:00:27;;;;;;;34.87;20.53;;;;;;;7.11;77.26;101342.63;4856784;29;20418;-76
2021/10/11 07:02:52;;;;;;;31.08;20.83;;;;;;;7.10;77.24;101346.38;4860167;29;20425;-76
2021/10/11 07:05:18;;;;;;;27.07;18.70;;;;;;;7.19;77.46;101341.63;4860100;29;20450;-76
2021/10/11 07:07:44;;;;;;;24.90;18.33;;;;;;;7.26;77.67;101353.28;4851588;29;20418;-76
2021/10/11 07:10:10;;;;;;;24.73;17.77;;;;;;;7.32;77.73;101364.09;4860197;29;20501;-76
2021/10/11 07:12:35;;;;;;;24.30;17.23;;;;;;;7.38;77.57;101356.22;4843457;29;20493;-77
2021/10/11 07:15:01;;;;;;;21.43;16.80;;;;;;;7.46;77.37;101361.44;4859814;29;20418;-76
2021/10/11 07:17:26;;;;;;;21.23;17.35;;;;;;;7.53;77.32;101360.44;4859094;29;20437;-76
2021/10/11 07:19:53;;;;;;;23.17;18.43;;;;;;;7.52;77.71;101366.03;4859382;29;20850;-76
2021/10/11 07:22:19;;;;;;;22.65;18.13;;;;;;;7.52;77.55;101374.94;4841221;29;21419;-76
2021/10/11 07:24:45;;;;;;;30.00;18.63;;;;;;;7.64;77.14;101378.72;4859881;29;20410;-76
2021/10/11 07:27:11;;;;;;;25.85;18.27;;;;;;;7.62;77.13;101394.28;4853224;29;20426;-76
2021/10/11 07:29:37;;;;;;;24.08;18.83;;;;;;;7.67;78.14;101396.38;4859624;29;20501;-76
2021/10/11 07:32:04;;;;;;;22.40;17.63;;;;;;;7.80;77.52;101393.72;4857530;29;20490;-76
2021/10/11 07:34:30;;;;;;;22.92;18.60;;;;;;;7.97;77.17;101399.56;4858256;29;20426;-76
2021/10/11 07:36:55;;;;;;;23.92;18.73;;;;;;;8.01;77.14;101398.09;4858881;29;20414;-76
2021/10/11 07:39:20;;;;;;;21.83;18.47;;;;;;;8.02;77.30;101402.47;4862158;29;20461;-76
2021/10/11 07:41:45;;;;;;;22.30;18.87;;;;;;;8.00;77.41;101407.25;4859604;29;20467;-76
2021/10/11 07:44:11;;;;;;;22.20;17.70;;;;;;;7.93;77.39;101409.94;4859272;29;20441;-76
2021/10/11 07:46:37;;;;;;;22.67;17.23;;;;;;;7.89;77.77;101408.69;4857150;29;20438;-76
2021/10/11 07:49:04;;;;;;;19.92;16.75;;;;;;;7.96;77.34;101406.00;4858229;29;20442;-76
2021/10/11 07:51:29;;;;;;;22.90;16.90;;;;;;;7.98;78.00;101399.34;4859408;29;20438;-76
2021/10/11 07:53:54;;;;;;;22.70;17.60;;;;;;;7.97;78.22;101403.06;4859303;29;20545;-76
2021/10/11 07:56:20;;;;;;;24.87;18.77;;;;;;;8.04;78.53;101411.19;4851799;29;20453;-76
2021/10/11 07:58:45;;;;;;;24.17;19.17;;;;;;;8.06;77.89;101414.53;4862017;29;20891;-75
2021/10/11 08:01:10;;;;;;;27.57;20.97;;;;;;;8.06;78.55;101415.38;4858301;29;20429;-77
2021/10/11 08:03:36;;;;;;;23.92;19.75;;;;;;;8.17;78.36;101412.03;4859328;29;20901;-76
2021/10/11 08:06:04;;;;;;;26.80;21.87;;;;;;;8.22;78.58;101417.66;4856722;29;20437;-76
2021/10/11 08:08:31;;;;;;;31.67;24.02;;;;;;;8.31;78.79;101415.63;4842197;29;20418;-76
2021/10/11 08:10:56;;;;;;;33.90;26.65;;;;;;;8.36;78.70;101420.41;4858697;29;20426;-75
2021/10/11 08:13:22;;;;;;;30.92;25.05;;;;;;;8.49;78.29;101412.31;4858252;29;20462;-76
2021/10/11 08:15:48;;;;;;;30.98;23.45;;;;;;;8.57;78.45;101417.50;4852871;29;20488;-76
2021/10/11 08:18:13;;;;;;;29.97;24.77;;;;;;;8.73;78.09;101414.34;4856234;29;20420;-76
2021/10/11 08:20:39;;;;;;;30.23;24.40;;;;;;;8.79;77.97;101421.66;4858951;29;20418;-75
2021/10/11 08:23:04;;;;;;;30.73;23.93;;;;;;;8.93;77.48;101422.44;4856793;29;20771;-75
2021/10/11 08:25:29;;;;;;;30.27;23.15;;;;;;;9.11;77.20;101430.75;4838602;29;20513;-75
2021/10/11 08:27:55;;;;;;;27.50;22.50;;;;;;;9.24;76.41;101430.69;4857628;29;20422;-75
2021/10/11 08:30:20;;;;;;;27.37;22.13;;;;;;;9.34;76.25;101433.78;4856530;29;20414;-75
2021/10/11 08:32:45;;;;;;;28.60;21.23;;;;;;;9.34;76.13;101442.75;4857205;29;20756;-76
2021/10/11 08:35:10;;;;;;;26.97;21.60;;;;;;;9.39;76.21;101436.69;4855015;29;20430;-75
2021/10/11 08:37:36;;;;;;;28.07;22.13;;;;;;;9.48;76.05;101427.31;4856818;29;20414;-76
2021/10/11 08:40:02;;;;;;;29.00;22.47;;;;;;;9.42;76.01;101424.63;4858862;29;20422;-76
2021/10/11 08:42:27;;;;;;;27.88;22.55;;;;;;;9.41;76.16;101425.66;4841869;29;20502;-76
2021/10/11 08:44:52;;;;;;;33.07;24.63;;;;;;;9.46;75.89;101425.84;4858603;29;20458;-75
2021/10/11 08:47:19;;;;;;;29.83;23.00;;;;;;;9.42;76.49;101420.00;4857154;29;20440;-76
2021/10/11 08:49:49;;;;;;;28.00;22.93;;;;;;;9.52;76.34;101417.69;4841877;29;20418;-76
2021/10/11 08:52:15;;;;;;;29.95;23.52;;;;;;;9.64;75.79;101412.44;4858484;29;20505;-75
2021/10/11 08:54:41;;;;;;;31.20;22.93;;;;;;;9.67;76.05;101412.00;4841393;29;21034;-76
2021/10/11 08:57:17;;;;;;;28.63;22.73;;;;;;;9.67;76.23;101418.25;4858640;29;20497;-75
2021/10/11 08:59:43;;;;;;;29.88;22.80;;;;;;;9.64;76.50;101420.56;4851025;29;20411;-75
2021/10/11 09:02:09;;;;;;;28.63;21.23;;;;;;;9.75;76.15;101420.69;4847468;29;20410;-75
2021/10/11 09:04:48;;;;;;;25.85;20.52;;;;;;;9.73;76.52;101421.97;4840141;29;20454;-75
2021/10/11 09:07:14;;;;;;;27.65;20.85;;;;;;;9.65;76.95;101424.94;4858217;29;20426;-75
2021/10/11 09:09:46;;;;;;;26.80;21.17;;;;;;;9.86;76.42;101425.44;4858731;29;20497;-75
2021/10/11 09:12:19;;;;;;;26.17;19.90;;;;;;;9.95;76.15;101427.88;4855591;29;20526;-76
2021/10/11 09:14:52;;;;;;;25.80;20.88;;;;;;;10.11;75.40;101425.50;4862987;29;20518;-76
2021/10/11 09:17:24;;;;;;;28.23;20.80;;;;;;;10.21;75.34;101423.16;4861274;29;20422;-75
2021/10/11 09:19:57;;;;;;;24.88;20.63;;;;;;;10.37;74.29;101421.81;4862300;29;20894;-75
2021/10/11 09:22:37;;;;;;;24.58;20.17;;;;;;;10.48;74.04;101412.97;4859734;29;20420;-75
2021/10/11 09:25:03;;;;;;;35.33;23.65;;;;;;;10.52;74.08;101419.59;4861940;29;20550;-75
2021/10/11 09:27:28;;;;;;;35.97;23.57;;;;;;;10.62;73.89;101421.81;4861651;29;20509;-76
2021/10/11 09:29:53;;;;;;;29.43;21.37;;;;;;;10.79;73.65;101423.75;4861525;29;20562;-76
2021/10/11 09:32:19;;;;;;;23.40;19.97;;;;;;;11.11;72.69;101418.22;4861993;29;20410;-75
2021/10/11 09:34:44;;;;;;;27.47;20.77;;;;;;;11.29;71.72;101419.06;4861208;29;20418;-75
2021/10/11 09:37:13;;;;;;;25.93;20.43;;;;;;;11.30;71.28;101420.69;4861515;29;20426;-76
2021/10/11 09:39:40;;;;;;;27.90;21.40;;;;;;;11.23;71.71;101419.94;4861423;29;20418;-75
2021/10/11 09:42:09;;;;;;;39.20;25.60;;;;;;;11.20;72.38;101419.56;4860422;29;20774;-76
2021/10/11 09:44:34;;;;;;;35.45;22.60;;;;;;;11.05;73.07;101416.41;4861309;29;20566;-75
2021/10/11 09:47:09;;;;;;;29.17;22.77;;;;;;;10.97;73.64;101413.97;4859412;29;20520;-75
2021/10/11 09:49:36;;;;;;;27.42;21.67;;;;;;;11.16;74.11;101410.25;4860564;29;20458;-76
2021/10/11 09:52:03;;;;;;;24.63;19.60;;;;;;;11.81;71.82;101414.88;4858759;29;20425;-75
2021/10/11 09:54:28;;;;;;;31.13;21.02;;;;;;;12.66;69.39;101411.91;4860580;29;20419;-77
2021/10/11 09:56:54;;;;;;;26.08;19.48;;;;;;;12.77;68.55;101411.09;4861176;29;20410;-75
2021/10/11 09:59:19;;;;;;;26.93;19.07;;;;;;;12.99;68.56;101404.81;4848287;29;20426;-75
2021/10/11 10:01:46;;;;;;;25.10;18.07;;;;;;;13.38;67.48;101391.50;4845827;29;20425;-75
2021/10/11 10:04:25;;;;;;;21.98;17.00;;;;;;;13.88;65.54;101381.63;4860464;29;20421;-75
2021/10/11 10:06:53;;;;;;;26.67;18.08;;;;;;;13.97;64.14;101374.69;4852556;29;20441;-75
2021/10/11 10:09:21;;;;;;;23.00;16.52;;;;;;;14.17;63.17;101367.94;4860675;29;20505;-76
2021/10/11 10:11:47;;;;;;;29.67;19.15;;;;;;;14.37;62.20;101366.44;4860824;29;20770;-75
2021/10/11 10:14:21;;;;;;;40.92;22.85;;;;;;;14.71;60.55;101380.88;4861244;29;20414;-76
2021/10/11 10:16:48;;;;;;;34.03;19.75;;;;;;;14.73;60.16;101384.19;4862087;29;20461;-76
2021/10/11 10:19:13;;;;;;;33.22;19.35;;;;;;;14.85;59.94;101375.91;4844306;29;20977;-76
2021/10/11 10:21:40;;;;;;;29.60;18.23;;;;;;;15.05;59.31;101378.91;4858924;29;20505;-76
2021/10/11 10:24:07;;;;;;;32.10;19.40;;;;;;;14.39;60.41;101372.44;4860773;29;20510;-75
2021/10/11 10:26:36;;;;;;;40.00;20.95;;;;;;;14.14;61.85;101369.28;4844309;29;20865;-75
2021/10/11 10:29:18;;;;;;;31.83;21.42;;;;;;;14.10;62.16;101370.00;4853198;29;20974;-76
2021/10/11 10:31:44;;;;;;;30.27;19.23;;;;;;;14.03;62.08;101359.25;4841613;29;20926;-75
2021/10/11 10:34:16;;;;;;;29.65;17.52;;;;;;;14.03;62.34;101357.38;4854301;29;20434;-75
2021/10/11 10:36:44;;;;;;;34.85;20.75;;;;;;;14.11;61.81;101364.31;4857761;29;20410;-75
2021/10/11 10:39:13;;;;;;;23.15;16.20;;;;;;;14.22;61.60;101366.16;4844064;29;20410;-75
2021/10/11 10:41:43;;;;;;;21.70;17.05;;;;;;;14.13;61.20;101366.81;4860332;29;20402;-76
2021/10/11 10:44:18;;;;;;;18.60;16.23;;;;;;;13.88;61.86;101368.00;4860342;29;20914;-75
2021/10/11 10:46:55;;;;;;;18.92;16.58;;;;;;;13.69;63.03;101365.72;4860157;29;20433;-75
2021/10/11 10:49:35;;;;;;;20.45;16.17;;;;;;;13.78;63.47;101361.53;4858930;29;20430;-75
2021/10/11 10:52:10;;;;;;;22.03;15.40;;;;;;;13.99;62.61;101353.47;4860228;29;20501;-74
2021/10/11 10:54:41;;;;;;;21.67;15.90;;;;;;;14.04;62.46;101352.75;4858365;29;20417;-74
2021/10/11 10:57:09;;;;;;;19.80;15.75;;;;;;;14.07;62.10;101356.88;4860571;29;20406;-74
2021/10/11 10:59:35;;;;;;;25.08;15.85;;;;;;;14.26;62.42;101361.84;4855258;29;20426;-73
2021/10/11 11:02:06;;;;;;;23.35;16.15;;;;;;;14.33;62.36;101350.78;4858307;29;20411;-74
2021/10/11 11:04:32;;;;;;;21.90;15.52;;;;;;;14.37;61.62;101347.34;4855427;29;20892;-74
2021/10/11 11:07:06;;;;;;;19.23;15.33;;;;;;;14.25;61.47;101352.03;4839596;29;20486;-74
2021/10/11 11:09:45;;;;;;;19.63;16.03;;;;;;;13.99;62.56;101347.22;4859510;29;20927;-74
2021/10/11 11:12:12;;;;;;;19.47;15.83;;;;;;;13.84;63.33;101344.19;4859742;29;20513;-74